createdAt,value
2018-06-01T00:00:22.230Z,65.09
2018-06-01T00:00:53.417Z,64.95
2018-06-01T00:01:24.641Z,65.13
2018-06-01T00:01:55.829Z,65.55
2018-06-01T00:02:27.037Z,65.35
2018-06-01T00:02:58.318Z,65.25
2018-06-01T00:03:29.536Z,65.21
2018-06-01T00:04:00.773Z,65.25
2018-06-01T00:04:31.974Z,65.50
2018-06-01T00:05:03.158Z,65.58
2018-06-01T00:05:34.394Z,65.27
2018-06-01T00:06:06.749Z,65.28
2018-06-01T00:06:38.474Z,65.35
2018-06-01T00:07:09.660Z,64.69
2018-06-01T00:07:40.894Z,64.90
2018-06-01T00:08:12.085Z,65.05
2018-06-01T00:08:43.386Z,64.76
2018-06-01T00:09:16.000Z,65.00
2018-06-01T00:09:47.188Z,65.05
2018-06-01T00:10:18.360Z,65.21
2018-06-01T00:10:49.541Z,65.30
2018-06-01T00:11:20.725Z,65.79
2018-06-01T00:11:51.901Z,65.18
2018-06-01T00:12:23.123Z,65.25
2018-06-01T00:12:54.371Z,65.30
2018-06-01T00:13:25.565Z,65.57
2018-06-01T00:13:56.808Z,65.75
2018-06-01T00:14:28.053Z,65.63
2018-06-01T00:14:59.243Z,65.73
2018-06-01T00:15:30.445Z,66.31
2018-06-01T00:16:01.649Z,66.36
2018-06-01T00:16:32.852Z,66.15
2018-06-01T00:17:04.028Z,66.09
2018-06-01T00:17:35.218Z,66.19
2018-06-01T00:18:07.217Z,65.99
2018-06-01T00:18:38.461Z,65.88
2018-06-01T00:19:09.694Z,65.99
2018-06-01T00:19:40.957Z,65.93
2018-06-01T00:20:12.144Z,65.95
2018-06-01T00:20:43.330Z,66.03
2018-06-01T00:21:14.505Z,66.30
2018-06-01T00:21:45.680Z,66.03
2018-06-01T00:22:18.095Z,65.92
2018-06-01T00:22:49.300Z,65.81
2018-06-01T00:23:21.489Z,65.81
2018-06-01T00:23:52.695Z,66.01
2018-06-01T00:24:23.913Z,66.10
2018-06-01T00:24:55.141Z,65.97
2018-06-01T00:25:26.345Z,66.11
2018-06-01T00:25:57.530Z,66.34
2018-06-01T00:26:28.721Z,66.33
2018-06-01T00:26:59.973Z,66.07
2018-06-01T00:27:31.152Z,66.16
2018-06-01T00:28:02.344Z,66.24
2018-06-01T00:28:33.531Z,66.18
2018-06-01T00:29:04.738Z,66.05
2018-06-01T00:29:35.957Z,66.24
2018-06-01T00:30:07.244Z,66.45
2018-06-01T00:30:38.425Z,66.64
2018-06-01T00:31:09.609Z,66.81
2018-06-01T00:31:40.837Z,67.05
2018-06-01T00:32:12.021Z,67.18
2018-06-01T00:32:43.208Z,67.33
2018-06-01T00:33:14.437Z,67.28
2018-06-01T00:33:45.665Z,67.31
2018-06-01T00:34:16.848Z,67.36
2018-06-01T00:34:48.076Z,67.51
2018-06-01T00:35:19.309Z,67.65
2018-06-01T00:35:50.486Z,67.83
2018-06-01T00:36:21.669Z,68.07
2018-06-01T00:36:52.905Z,67.93
2018-06-01T00:37:24.092Z,67.54
2018-06-01T00:37:55.264Z,67.19
2018-06-01T00:38:26.445Z,66.96
2018-06-01T00:38:57.621Z,66.93
2018-06-01T00:39:28.810Z,67.04
2018-06-01T00:40:00.046Z,66.85
2018-06-01T00:40:31.334Z,66.85
2018-06-01T00:41:02.526Z,67.37
2018-06-01T00:41:33.715Z,67.97
2018-06-01T00:42:04.953Z,68.40
2018-06-01T00:42:36.137Z,68.19
2018-06-01T00:43:07.313Z,68.30
2018-06-01T00:43:38.490Z,68.74
2018-06-01T00:44:09.719Z,68.87
2018-06-01T00:44:40.913Z,68.73
2018-06-01T00:45:12.099Z,68.72
2018-06-01T00:45:43.318Z,68.42
2018-06-01T00:46:14.505Z,68.44
2018-06-01T00:46:45.713Z,68.57
2018-06-01T00:47:16.888Z,68.97
2018-06-01T00:47:48.080Z,69.10
2018-06-01T00:48:19.302Z,69.02
2018-06-01T00:48:50.493Z,68.95
2018-06-01T00:49:21.672Z,68.92
2018-06-01T00:49:52.853Z,68.85
2018-06-01T00:50:24.093Z,68.85
2018-06-01T00:50:55.345Z,68.77
2018-06-01T00:51:26.569Z,68.80
2018-06-01T00:51:57.762Z,68.77
2018-06-01T00:52:28.994Z,68.74
2018-06-01T00:53:00.188Z,68.83
2018-06-01T00:53:31.368Z,68.94
2018-06-01T00:54:02.546Z,68.98
2018-06-01T00:54:33.750Z,68.98
2018-06-01T00:55:04.991Z,68.89
2018-06-01T00:55:36.242Z,68.73
2018-06-01T00:56:07.520Z,68.54
2018-06-01T00:56:38.700Z,68.56
2018-06-01T00:57:09.934Z,68.60
2018-06-01T00:57:41.177Z,68.59
2018-06-01T00:58:12.362Z,68.56
2018-06-01T00:58:43.584Z,68.64
2018-06-01T00:59:14.801Z,68.72
2018-06-01T00:59:45.979Z,68.50
2018-06-01T01:00:17.165Z,68.26
2018-06-01T01:00:48.347Z,68.12
2018-06-01T01:01:19.531Z,68.22
2018-06-01T01:01:50.705Z,68.32
2018-06-01T01:02:21.973Z,68.18
2018-06-01T01:02:53.164Z,68.00
2018-06-01T01:03:24.393Z,67.73
2018-06-01T01:03:55.583Z,67.27
2018-06-01T01:04:26.769Z,67.56
2018-06-01T01:04:58.041Z,67.77
2018-06-01T01:05:29.260Z,68.02
2018-06-01T01:06:00.485Z,68.08
2018-06-01T01:06:31.665Z,67.47
2018-06-01T01:07:02.901Z,67.78
2018-06-01T01:07:34.129Z,67.50
2018-06-01T01:08:05.358Z,67.65
2018-06-01T01:08:36.593Z,67.79
2018-06-01T01:09:07.777Z,68.13
2018-06-01T01:09:38.950Z,67.41
2018-06-01T01:10:11.379Z,67.82
2018-06-01T01:10:42.574Z,67.92
2018-06-01T01:11:13.777Z,68.51
2018-06-01T01:11:44.989Z,68.77
2018-06-01T01:12:16.219Z,68.52
2018-06-01T01:12:47.410Z,68.69
2018-06-01T01:13:18.639Z,68.81
2018-06-01T01:13:49.873Z,68.66
2018-06-01T01:14:21.061Z,68.64
2018-06-01T01:14:52.245Z,68.64
2018-06-01T01:15:23.506Z,68.50
2018-06-01T01:15:54.689Z,68.49
2018-06-01T01:16:25.861Z,68.33
2018-06-01T01:16:57.101Z,68.10
2018-06-01T01:17:28.294Z,68.14
2018-06-01T01:17:59.483Z,68.17
2018-06-01T01:18:30.707Z,68.24
2018-06-01T01:19:01.891Z,68.40
2018-06-01T01:19:33.136Z,68.64
2018-06-01T01:20:04.325Z,68.79
2018-06-01T01:20:35.510Z,68.90
2018-06-01T01:21:06.693Z,68.81
2018-06-01T01:21:37.873Z,68.57
2018-06-01T01:22:09.056Z,68.61
2018-06-01T01:22:40.272Z,68.40
2018-06-01T01:23:11.458Z,68.10
2018-06-01T01:23:42.694Z,67.87
2018-06-01T01:24:13.933Z,67.85
2018-06-01T01:24:45.167Z,67.92
2018-06-01T01:25:16.371Z,67.97
2018-06-01T01:25:47.549Z,68.18
2018-06-01T01:26:18.747Z,68.30
2018-06-01T01:26:49.986Z,68.16
2018-06-01T01:27:21.257Z,68.47
2018-06-01T01:27:53.233Z,68.41
2018-06-01T01:28:24.463Z,68.56
2018-06-01T01:28:55.728Z,68.48
2018-06-01T01:29:26.937Z,67.92
2018-06-01T01:29:58.166Z,68.15
2018-06-01T01:30:29.410Z,68.93
2018-06-01T01:31:00.713Z,68.54
2018-06-01T01:31:31.918Z,69.06
2018-06-01T01:32:03.133Z,69.12
2018-06-01T01:32:34.315Z,68.96
2018-06-01T01:33:05.493Z,68.86
2018-06-01T01:33:36.722Z,68.82
2018-06-01T01:34:07.930Z,69.01
2018-06-01T01:34:39.112Z,69.28
2018-06-01T01:35:10.308Z,69.35
2018-06-01T01:35:41.488Z,69.43
2018-06-01T01:36:12.669Z,69.68
2018-06-01T01:36:43.853Z,69.69
2018-06-01T01:37:15.093Z,69.42
2018-06-01T01:37:46.337Z,69.38
2018-06-01T01:38:17.610Z,69.41
2018-06-01T01:38:48.792Z,69.16
2018-06-01T01:39:20.028Z,69.01
2018-06-01T01:39:51.212Z,69.02
2018-06-01T01:40:22.383Z,69.23
2018-06-01T01:40:53.568Z,69.58
2018-06-01T01:41:24.771Z,69.44
2018-06-01T01:41:56.006Z,69.40
2018-06-01T01:42:27.244Z,69.18
2018-06-01T01:42:58.432Z,68.59
2018-06-01T01:43:29.624Z,68.76
2018-06-01T01:44:00.808Z,68.58
2018-06-01T01:44:31.993Z,68.24
2018-06-01T01:45:03.173Z,68.81
2018-06-01T01:45:34.353Z,68.51
2018-06-01T01:46:05.593Z,68.59
2018-06-01T01:46:36.783Z,68.68
2018-06-01T01:47:08.029Z,68.66
2018-06-01T01:47:39.262Z,68.92
2018-06-01T01:48:10.499Z,68.80
2018-06-01T01:48:41.686Z,68.84
2018-06-01T01:49:12.888Z,68.66
2018-06-01T01:49:44.071Z,68.75
2018-06-01T01:50:15.242Z,68.85
2018-06-01T01:50:46.420Z,68.80
2018-06-01T01:51:17.666Z,69.00
2018-06-01T01:51:48.854Z,68.94
2018-06-01T01:52:20.065Z,68.88
2018-06-01T01:52:51.291Z,69.08
2018-06-01T01:53:22.494Z,69.36
2018-06-01T01:53:53.726Z,69.14
2018-06-01T01:54:24.916Z,68.75
2018-06-01T01:54:56.128Z,68.94
2018-06-01T01:55:27.393Z,68.96
2018-06-01T01:55:58.581Z,69.11
2018-06-01T01:56:29.821Z,69.07
2018-06-01T01:57:01.054Z,68.67
2018-06-01T01:57:32.237Z,68.75
2018-06-01T01:58:03.469Z,68.85
2018-06-01T01:58:34.705Z,68.90
2018-06-01T01:59:05.897Z,68.95
2018-06-01T01:59:37.162Z,68.86
2018-06-01T02:00:08.349Z,68.85
2018-06-01T02:00:39.530Z,68.94
2018-06-01T02:01:10.712Z,69.03
2018-06-01T02:01:41.892Z,69.10
2018-06-01T02:02:13.101Z,69.20
2018-06-01T02:02:44.302Z,69.28
2018-06-01T02:03:15.504Z,69.38
2018-06-01T02:03:46.762Z,69.50
2018-06-01T02:04:17.964Z,69.55
2018-06-01T02:04:49.193Z,69.71
2018-06-01T02:05:20.369Z,69.90
2018-06-01T02:05:51.606Z,69.98
2018-06-01T02:06:22.804Z,70.07
2018-06-01T02:06:53.984Z,70.21
2018-06-01T02:07:25.219Z,70.33
2018-06-01T02:07:56.405Z,70.27
2018-06-01T02:08:27.584Z,70.34
2018-06-01T02:08:58.807Z,70.05
2018-06-01T02:09:30.035Z,70.05
2018-06-01T02:10:01.305Z,69.80
2018-06-01T02:10:32.497Z,69.82
2018-06-01T02:11:03.681Z,68.72
2018-06-01T02:11:34.858Z,69.58
2018-06-01T02:12:06.034Z,69.26
2018-06-01T02:12:37.214Z,68.94
2018-06-01T02:13:08.397Z,68.57
2018-06-01T02:13:39.633Z,68.78
2018-06-01T02:14:10.879Z,69.41
2018-06-01T02:14:42.110Z,69.02
2018-06-01T02:15:13.301Z,68.92
2018-06-01T02:15:44.470Z,69.06
2018-06-01T02:16:15.652Z,69.10
2018-06-01T02:16:46.878Z,69.10
2018-06-01T02:17:18.073Z,69.15
2018-06-01T02:17:49.286Z,69.24
2018-06-01T02:18:20.509Z,69.37
2018-06-01T02:18:51.687Z,69.44
2018-06-01T02:19:22.877Z,69.54
2018-06-01T02:19:54.118Z,68.92
2018-06-01T02:20:25.415Z,69.06
2018-06-01T02:20:56.554Z,69.54
2018-06-01T02:21:27.787Z,69.55
2018-06-01T02:21:58.989Z,69.84
2018-06-01T02:22:30.185Z,69.63
2018-06-01T02:23:01.405Z,69.88
2018-06-01T02:23:32.627Z,70.13
2018-06-01T02:24:03.808Z,69.97
2018-06-01T02:24:34.993Z,69.93
2018-06-01T02:25:06.213Z,70.15
2018-06-01T02:25:37.442Z,70.31
2018-06-01T02:26:08.694Z,70.51
2018-06-01T02:26:39.945Z,69.94
2018-06-01T02:27:11.129Z,69.79
2018-06-01T02:27:42.362Z,69.30
2018-06-01T02:28:13.549Z,69.14
2018-06-01T02:28:44.786Z,68.90
2018-06-01T02:29:15.978Z,69.01
2018-06-01T02:29:47.194Z,69.08
2018-06-01T02:30:18.427Z,69.08
2018-06-01T02:30:49.859Z,69.01
2018-06-01T02:31:21.101Z,69.11
2018-06-01T02:31:52.333Z,69.30
2018-06-01T02:32:23.513Z,68.74
2018-06-01T02:32:54.760Z,68.39
2018-06-01T02:33:25.957Z,68.68
2018-06-01T02:33:57.194Z,68.74
2018-06-01T02:34:28.442Z,68.21
2018-06-01T02:34:59.622Z,68.42
2018-06-01T02:35:30.802Z,68.56
2018-06-01T02:36:01.981Z,68.51
2018-06-01T02:36:33.214Z,68.99
2018-06-01T02:37:04.409Z,68.53
2018-06-01T02:37:35.605Z,68.80
2018-06-01T02:38:06.842Z,68.35
2018-06-01T02:38:38.034Z,68.67
2018-06-01T02:39:09.210Z,68.85
2018-06-01T02:39:40.497Z,68.54
2018-06-01T02:40:11.696Z,68.27
2018-06-01T02:40:42.877Z,68.64
2018-06-01T02:41:14.090Z,68.33
2018-06-01T02:41:45.324Z,68.03
2018-06-01T02:42:16.513Z,68.11
2018-06-01T02:42:47.705Z,68.56
2018-06-01T02:43:18.888Z,67.94
2018-06-01T02:43:50.085Z,68.20
2018-06-01T02:44:21.321Z,68.01
2018-06-01T02:44:52.609Z,67.56
2018-06-01T02:45:23.816Z,67.73
2018-06-01T02:45:54.989Z,67.87
2018-06-01T02:46:26.175Z,67.74
2018-06-01T02:46:57.402Z,67.65
2018-06-01T02:47:28.594Z,68.47
2018-06-01T02:47:59.798Z,67.70
2018-06-01T02:48:30.977Z,67.93
2018-06-01T02:49:02.201Z,67.85
2018-06-01T02:49:33.433Z,67.93
2018-06-01T02:50:04.648Z,68.07
2018-06-01T02:50:35.877Z,67.95
2018-06-01T02:51:07.070Z,67.98
2018-06-01T02:51:38.288Z,68.30
2018-06-01T02:52:09.466Z,68.48
2018-06-01T02:52:40.643Z,68.03
2018-06-01T02:53:11.823Z,67.91
2018-06-01T02:53:43.037Z,67.77
2018-06-01T02:54:14.210Z,67.99
2018-06-01T02:54:45.450Z,68.00
2018-06-01T02:55:16.634Z,67.78
2018-06-01T02:55:47.916Z,67.75
2018-06-01T02:56:19.154Z,68.00
2018-06-01T02:56:50.354Z,68.11
2018-06-01T02:57:21.595Z,68.23
2018-06-01T02:57:52.799Z,68.46
2018-06-01T02:58:23.985Z,68.10
2018-06-01T02:58:55.167Z,68.21
2018-06-01T02:59:26.358Z,68.02
2018-06-01T02:59:57.540Z,68.23
2018-06-01T03:00:28.734Z,67.95
2018-06-01T03:00:59.964Z,68.03
2018-06-01T03:01:31.159Z,67.90
2018-06-01T03:02:02.339Z,68.04
2018-06-01T03:02:33.526Z,68.69
2018-06-01T03:03:05.358Z,68.51
2018-06-01T03:03:36.533Z,68.46
2018-06-01T03:04:07.714Z,67.30
2018-06-01T03:04:38.897Z,67.35
2018-06-01T03:05:10.076Z,66.89
2018-06-01T03:05:41.278Z,66.75
2018-06-01T03:06:12.508Z,66.10
2018-06-01T03:06:43.754Z,65.88
2018-06-01T03:07:16.107Z,64.83
2018-06-01T03:07:47.305Z,64.81
2018-06-01T03:08:18.486Z,64.26
2018-06-01T03:08:49.709Z,64.22
2018-06-01T03:09:20.907Z,64.34
2018-06-01T03:09:52.097Z,63.94
2018-06-01T03:10:23.274Z,63.14
2018-06-01T03:10:54.509Z,63.04
2018-06-01T03:11:25.736Z,62.94
2018-06-01T03:11:56.968Z,62.43
2018-06-01T03:12:28.193Z,61.68
2018-06-01T03:12:59.385Z,61.16
2018-06-01T03:13:30.568Z,60.66
2018-06-01T03:14:01.762Z,61.22
2018-06-01T03:14:32.942Z,60.32
2018-06-01T03:15:04.186Z,59.96
2018-06-01T03:15:35.376Z,59.52
2018-06-01T03:16:06.669Z,59.29
2018-06-01T03:16:39.084Z,59.54
2018-06-01T03:17:10.357Z,59.21
2018-06-01T03:17:41.537Z,59.15
2018-06-01T03:18:12.758Z,59.83
2018-06-01T03:18:44.022Z,59.12
2018-06-01T03:19:15.269Z,58.81
2018-06-01T03:19:46.457Z,58.98
2018-06-01T03:20:17.693Z,58.52
2018-06-01T03:20:48.881Z,58.99
2018-06-01T03:21:20.061Z,58.08
2018-06-01T03:21:51.289Z,57.47
2018-06-01T03:22:22.478Z,57.12
2018-06-01T03:22:53.697Z,57.16
2018-06-01T03:23:24.925Z,56.86
2018-06-01T03:23:56.119Z,56.93
2018-06-01T03:24:27.290Z,57.23
2018-06-01T03:24:58.481Z,56.20
2018-06-01T03:25:29.652Z,56.27
2018-06-01T03:26:00.832Z,55.50
2018-06-01T03:26:34.407Z,54.87
2018-06-01T03:27:05.641Z,54.24
2018-06-01T03:27:36.827Z,53.93
2018-06-01T03:28:08.052Z,53.76
2018-06-01T03:28:39.282Z,53.20
2018-06-01T03:29:11.522Z,53.38
2018-06-01T03:29:42.708Z,53.20
2018-06-01T03:30:13.950Z,52.65
2018-06-01T03:30:45.126Z,52.10
2018-06-01T03:31:16.297Z,51.84
2018-06-01T03:31:47.532Z,52.33
2018-06-01T03:32:18.720Z,52.44
2018-06-01T03:32:49.949Z,51.41
2018-06-01T03:33:21.136Z,50.93
2018-06-01T03:33:52.361Z,50.70
2018-06-01T03:34:23.557Z,50.58
2018-06-01T03:34:54.733Z,50.06
2018-06-01T03:35:25.953Z,50.01
2018-06-01T03:35:57.919Z,49.17
2018-06-01T03:36:29.109Z,49.47
2018-06-01T03:37:00.289Z,48.85
2018-06-01T03:37:31.473Z,49.80
2018-06-01T03:38:02.696Z,49.26
2018-06-01T03:38:33.908Z,49.37
2018-06-01T03:39:05.094Z,48.67
2018-06-01T03:39:36.334Z,49.54
2018-06-01T03:40:07.532Z,48.90
2018-06-01T03:40:38.717Z,48.92
2018-06-01T03:41:09.895Z,48.68
2018-06-01T03:41:41.116Z,49.45
2018-06-01T03:42:12.337Z,48.57
2018-06-01T03:42:43.570Z,48.42
2018-06-01T03:43:14.760Z,47.90
2018-06-01T03:43:46.025Z,47.78
2018-06-01T03:44:17.224Z,47.68
2018-06-01T03:44:48.453Z,47.37
2018-06-01T03:45:19.697Z,47.38
2018-06-01T03:45:50.907Z,47.15
2018-06-01T03:46:22.152Z,47.20
2018-06-01T03:46:53.333Z,47.32
2018-06-01T03:47:24.534Z,46.25
2018-06-01T03:47:55.728Z,47.49
2018-06-01T03:48:26.925Z,47.34
2018-06-01T03:48:58.109Z,46.47
2018-06-01T03:49:29.345Z,46.25
2018-06-01T03:50:00.547Z,46.06
2018-06-01T03:50:31.733Z,45.65
2018-06-01T03:51:03.038Z,45.83
2018-06-01T03:51:34.242Z,45.54
2018-06-01T03:52:05.430Z,46.00
2018-06-01T03:52:36.625Z,45.04
2018-06-01T03:53:07.865Z,45.26
2018-06-01T03:53:39.068Z,44.44
2018-06-01T03:54:10.257Z,44.97
2018-06-01T03:54:41.433Z,45.49
2018-06-01T03:55:12.628Z,45.71
2018-06-01T03:55:43.865Z,45.90
2018-06-01T03:56:15.101Z,46.43
2018-06-01T03:56:46.282Z,46.90
2018-06-01T03:57:17.465Z,47.15
2018-06-01T03:57:48.652Z,48.57
2018-06-01T03:58:19.838Z,49.19
2018-06-01T03:58:51.038Z,49.48
2018-06-01T03:59:22.221Z,49.71
2018-06-01T03:59:53.456Z,50.09
2018-06-01T04:00:24.669Z,49.58
2018-06-01T04:00:55.862Z,49.59
2018-06-01T04:01:27.134Z,48.95
2018-06-01T04:01:58.362Z,48.37
2018-06-01T04:02:29.581Z,48.19
2018-06-01T04:03:00.811Z,47.53
2018-06-01T04:03:32.085Z,46.58
2018-06-01T04:04:03.333Z,45.81
2018-06-01T04:04:34.533Z,45.69
2018-06-01T04:05:05.734Z,45.39
2018-06-01T04:05:36.932Z,45.51
2018-06-01T04:06:08.125Z,45.15
2018-06-01T04:06:39.317Z,45.06
2018-06-01T04:07:10.501Z,45.22
2018-06-01T04:07:41.729Z,45.76
2018-06-01T04:08:12.969Z,46.15
2018-06-01T04:08:44.220Z,47.50
2018-06-01T04:09:15.426Z,47.89
2018-06-01T04:09:46.626Z,47.52
2018-06-01T04:10:17.866Z,47.85
2018-06-01T04:10:49.074Z,48.03
2018-06-01T04:11:20.305Z,47.95
2018-06-01T04:11:51.544Z,47.69
2018-06-01T04:12:22.793Z,46.98
2018-06-01T04:12:54.118Z,46.70
2018-06-01T04:13:25.363Z,46.04
2018-06-01T04:13:56.700Z,45.20
2018-06-01T04:14:27.943Z,45.31
2018-06-01T04:14:59.194Z,45.29
2018-06-01T04:15:30.458Z,45.25
2018-06-01T04:16:01.679Z,45.76
2018-06-01T04:16:32.886Z,46.15
2018-06-01T04:17:04.084Z,46.90
2018-06-01T04:17:35.281Z,47.84
2018-06-01T04:18:06.502Z,49.07
2018-06-01T04:18:37.692Z,48.53
2018-06-01T04:19:08.934Z,48.37
2018-06-01T04:19:40.181Z,48.28
2018-06-01T04:20:11.420Z,48.29
2018-06-01T04:20:42.664Z,48.11
2018-06-01T04:21:13.880Z,48.14
2018-06-01T04:21:45.131Z,48.48
2018-06-01T04:22:16.340Z,48.78
2018-06-01T04:22:47.587Z,48.74
2018-06-01T04:23:18.781Z,49.04
2018-06-01T04:23:50.655Z,48.55
2018-06-01T04:24:21.850Z,49.08
2018-06-01T04:24:53.097Z,49.37
2018-06-01T04:25:24.343Z,49.17
2018-06-01T04:25:55.594Z,49.31
2018-06-01T04:26:26.810Z,48.60
2018-06-01T04:26:57.997Z,47.82
2018-06-01T04:27:29.237Z,48.24
2018-06-01T04:28:00.503Z,48.42
2018-06-01T04:28:31.702Z,47.98
2018-06-01T04:29:02.944Z,48.17
2018-06-01T04:29:34.144Z,48.05
2018-06-01T04:30:05.338Z,48.85
2018-06-01T04:30:36.574Z,48.52
2018-06-01T04:31:07.813Z,48.97
2018-06-01T04:31:39.021Z,49.27
2018-06-01T04:32:10.214Z,48.74
2018-06-01T04:32:41.459Z,47.84
2018-06-01T04:33:13.888Z,47.42
2018-06-01T04:33:45.169Z,47.11
2018-06-01T04:35:00.656Z,45.85
2018-06-01T04:35:31.934Z,46.21
2018-06-01T04:36:03.207Z,45.85
2018-06-01T04:36:34.422Z,45.58
2018-06-01T04:37:05.645Z,45.63
2018-06-01T04:37:36.890Z,45.30
2018-06-01T04:38:08.146Z,45.71
2018-06-01T04:38:39.347Z,46.02
2018-06-01T04:39:10.557Z,46.29
2018-06-01T04:39:41.741Z,47.91
2018-06-01T04:40:13.016Z,48.85
2018-06-01T04:40:44.225Z,49.31
2018-06-01T04:41:15.447Z,50.05
2018-06-01T04:41:46.700Z,51.02
2018-06-01T04:42:17.953Z,51.57
2018-06-01T04:42:49.153Z,51.89
2018-06-01T04:43:20.394Z,51.91
2018-06-01T04:43:51.622Z,52.58
2018-06-01T04:44:22.807Z,53.10
2018-06-01T04:44:54.045Z,53.48
2018-06-01T04:45:25.245Z,53.54
2018-06-01T04:45:56.505Z,53.15
2018-06-01T04:46:27.755Z,53.57
2018-06-01T04:46:58.955Z,53.78
2018-06-01T04:47:30.144Z,53.67
2018-06-01T04:48:01.385Z,53.01
2018-06-01T04:48:32.684Z,52.30
2018-06-01T04:49:03.881Z,51.28
2018-06-01T04:49:35.133Z,50.96
2018-06-01T04:50:06.409Z,51.07
2018-06-01T04:50:37.673Z,50.20
2018-06-01T04:51:08.876Z,50.73
2018-06-01T04:51:40.114Z,51.07
2018-06-01T04:52:11.334Z,50.97
2018-06-01T04:52:42.517Z,51.56
2018-06-01T04:53:13.772Z,51.43
2018-06-01T04:53:44.988Z,50.32
2018-06-01T04:54:16.174Z,49.66
2018-06-01T04:54:47.367Z,48.47
2018-06-01T04:55:18.585Z,47.01
2018-06-01T04:55:50.892Z,45.48
2018-06-01T04:56:22.076Z,44.50
2018-06-01T04:56:53.253Z,43.30
2018-06-01T04:57:24.484Z,42.69
2018-06-01T04:57:55.669Z,42.00
2018-06-01T04:58:26.863Z,41.77
2018-06-01T04:58:58.055Z,40.36
2018-06-01T04:59:29.243Z,39.91
2018-06-01T05:00:00.454Z,39.78
2018-06-01T05:00:31.690Z,39.13
2018-06-01T05:01:02.939Z,39.20
2018-06-01T05:01:34.220Z,39.06
2018-06-01T05:02:05.460Z,38.61
2018-06-01T05:02:36.688Z,37.47
2018-06-01T05:03:07.868Z,36.80
2018-06-01T05:03:39.045Z,36.63
2018-06-01T05:04:10.229Z,36.40
2018-06-01T05:04:41.463Z,36.14
2018-06-01T05:05:12.649Z,35.53
2018-06-01T05:05:43.908Z,35.53
2018-06-01T05:06:15.085Z,34.25
2018-06-01T05:06:46.267Z,35.04
2018-06-01T05:07:17.445Z,35.10
2018-06-01T05:07:48.643Z,34.93
2018-06-01T05:08:19.913Z,34.90
2018-06-01T05:08:51.153Z,34.66
2018-06-01T05:09:22.341Z,33.96
2018-06-01T05:09:53.534Z,34.18
2018-06-01T05:10:24.715Z,34.07
2018-06-01T05:10:55.998Z,33.86
2018-06-01T05:11:27.229Z,33.56
2018-06-01T05:11:58.416Z,34.14
2018-06-01T05:12:29.601Z,33.98
2018-06-01T05:13:00.829Z,34.38
2018-06-01T05:13:32.022Z,34.51
2018-06-01T05:14:03.289Z,34.13
2018-06-01T05:14:34.570Z,33.75
2018-06-01T05:15:05.765Z,33.67
2018-06-01T05:15:36.989Z,33.68
2018-06-01T05:16:08.182Z,33.92
2018-06-01T05:16:39.474Z,34.09
2018-06-01T05:17:10.652Z,34.19
2018-06-01T05:17:41.871Z,34.46
2018-06-01T05:18:13.094Z,34.01
2018-06-01T05:18:44.333Z,34.05
2018-06-01T05:19:15.558Z,34.11
2018-06-01T05:19:46.740Z,33.83
2018-06-01T05:20:18.630Z,33.66
2018-06-01T05:20:49.809Z,33.60
2018-06-01T05:21:20.985Z,33.46
2018-06-01T05:21:52.169Z,33.48
2018-06-01T05:22:23.345Z,33.34
2018-06-01T05:22:54.577Z,33.45
2018-06-01T05:23:25.775Z,33.32
2018-06-01T05:23:56.990Z,33.05
2018-06-01T05:24:28.177Z,32.73
2018-06-01T05:24:59.426Z,32.64
2018-06-01T05:25:30.625Z,32.37
2018-06-01T05:26:01.816Z,32.12
2018-06-01T05:26:33.004Z,31.89
2018-06-01T05:27:04.183Z,31.89
2018-06-01T05:27:35.374Z,31.58
2018-06-01T05:28:06.660Z,31.30
2018-06-01T05:28:37.869Z,31.40
2018-06-01T05:29:09.091Z,31.17
2018-06-01T05:29:40.333Z,31.08
2018-06-01T05:30:11.530Z,30.86
2018-06-01T05:30:42.859Z,31.42
2018-06-01T05:31:14.250Z,31.81
2018-06-01T05:31:45.442Z,32.03
2018-06-01T05:32:16.637Z,31.95
2018-06-01T05:32:47.829Z,32.71
2018-06-01T05:33:19.012Z,33.07
2018-06-01T05:33:50.305Z,33.27
2018-06-01T05:34:21.542Z,33.66
2018-06-01T05:34:52.800Z,34.33
2018-06-01T05:35:24.048Z,34.69
2018-06-01T05:35:55.318Z,34.56
2018-06-01T05:36:26.503Z,34.94
2018-06-01T05:36:57.737Z,35.07
2018-06-01T05:37:28.929Z,35.34
2018-06-01T05:38:00.169Z,35.11
2018-06-01T05:38:31.349Z,35.73
2018-06-01T05:39:02.589Z,35.53
2018-06-01T05:39:33.834Z,35.87
2018-06-01T05:40:05.059Z,35.23
2018-06-01T05:40:36.244Z,35.26
2018-06-01T05:41:07.442Z,35.60
2018-06-01T05:41:39.858Z,35.73
2018-06-01T05:42:11.053Z,35.71
2018-06-01T05:42:42.235Z,35.80
2018-06-01T05:43:13.479Z,35.85
2018-06-01T05:43:44.665Z,35.71
2018-06-01T05:44:54.457Z,35.07
2018-06-01T05:45:25.653Z,36.03
2018-06-01T05:45:56.948Z,35.87
2018-06-01T05:46:28.136Z,36.15
2018-06-01T05:46:59.312Z,36.15
2018-06-01T05:47:30.499Z,34.46
2018-06-01T05:48:01.677Z,34.72
2018-06-01T05:48:32.858Z,35.36
2018-06-01T05:49:04.104Z,35.83
2018-06-01T05:49:35.323Z,36.33
2018-06-01T05:50:06.501Z,36.05
2018-06-01T05:50:37.694Z,36.12
2018-06-01T05:51:09.913Z,36.26
2018-06-01T05:51:41.093Z,37.12
2018-06-01T05:52:12.303Z,37.13
2018-06-01T05:52:43.524Z,37.34
2018-06-01T05:53:14.705Z,37.58
2018-06-01T05:53:45.943Z,37.32
2018-06-01T05:54:17.136Z,37.54
2018-06-01T05:54:48.320Z,37.40
2018-06-01T05:55:19.504Z,37.34
2018-06-01T05:55:50.714Z,36.49
2018-06-01T05:56:21.952Z,37.50
2018-06-01T05:56:53.144Z,37.24
2018-06-01T05:57:24.416Z,36.65
2018-06-01T05:57:55.701Z,37.11
2018-06-01T05:58:26.892Z,37.42
2018-06-01T05:58:58.074Z,36.70
2018-06-01T05:59:29.272Z,36.80
2018-06-01T06:00:01.501Z,37.26
2018-06-01T06:00:32.733Z,37.68
2018-06-01T06:01:03.921Z,37.99
2018-06-01T06:01:35.146Z,37.79
2018-06-01T06:02:06.389Z,38.35
2018-06-01T06:02:37.600Z,38.44
2018-06-01T06:03:08.781Z,37.62
2018-06-01T06:03:41.118Z,37.88
2018-06-01T06:04:12.326Z,37.33
2018-06-01T06:04:43.594Z,37.86
2018-06-01T06:05:14.896Z,37.48
2018-06-01T06:05:46.162Z,37.34
2018-06-01T06:06:17.398Z,36.59
2018-06-01T06:06:48.597Z,37.43
2018-06-01T06:07:19.836Z,37.56
2018-06-01T06:07:51.955Z,36.96
2018-06-01T06:08:23.157Z,36.80
2018-06-01T06:08:54.342Z,37.10
2018-06-01T06:09:25.689Z,37.30
2018-06-01T06:09:56.942Z,36.50
2018-06-01T06:10:28.137Z,36.09
2018-06-01T06:10:59.347Z,36.25
2018-06-01T06:11:30.594Z,36.24
2018-06-01T06:12:01.781Z,36.20
2018-06-01T06:12:33.008Z,36.10
2018-06-01T06:13:04.261Z,36.16
2018-06-01T06:13:35.519Z,35.62
2018-06-01T06:14:06.757Z,36.07
2018-06-01T06:14:37.956Z,36.74
2018-06-01T06:15:09.187Z,37.06
2018-06-01T06:15:41.213Z,36.44
2018-06-01T06:16:12.426Z,35.89
2018-06-01T06:16:43.649Z,36.29
2018-06-01T06:17:14.912Z,36.98
2018-06-01T06:17:46.219Z,37.07
2018-06-01T06:18:17.468Z,36.75
2018-06-01T06:18:48.674Z,37.24
2018-06-01T06:19:19.936Z,37.46
2018-06-01T06:19:51.404Z,37.03
2018-06-01T06:20:23.803Z,36.14
2018-06-01T06:20:55.817Z,37.18
2018-06-01T06:21:28.111Z,36.37
2018-06-01T06:21:59.302Z,36.85
2018-06-01T06:22:30.689Z,36.88
2018-06-01T06:23:01.942Z,36.84
2018-06-01T06:23:33.164Z,36.59
2018-06-01T06:24:04.364Z,36.58
2018-06-01T06:24:35.609Z,36.57
2018-06-01T06:25:06.843Z,36.65
2018-06-01T06:25:38.106Z,36.59
2018-06-01T06:26:09.336Z,36.21
2018-06-01T06:26:40.566Z,36.49
2018-06-01T06:27:12.368Z,36.22
2018-06-01T06:27:43.565Z,36.93
2018-06-01T06:28:14.856Z,36.77
2018-06-01T06:28:46.097Z,36.24
2018-06-01T06:29:17.295Z,36.33
2018-06-01T06:29:48.540Z,35.40
2018-06-01T06:30:19.810Z,36.03
2018-06-01T06:30:51.014Z,35.38
2018-06-01T06:31:22.810Z,35.88
2018-06-01T06:31:54.005Z,34.29
2018-06-01T06:32:25.189Z,35.20
2018-06-01T06:32:56.466Z,35.84
2018-06-01T06:33:27.681Z,36.58
2018-06-01T06:33:58.934Z,37.26
2018-06-01T06:34:30.124Z,36.90
2018-06-01T06:35:02.533Z,34.83
2018-06-01T06:35:33.722Z,35.40
2018-06-01T06:36:04.978Z,35.93
2018-06-01T06:36:36.214Z,35.87
2018-06-01T06:37:07.430Z,36.53
2018-06-01T06:37:38.650Z,35.64
2018-06-01T06:38:09.880Z,36.23
2018-06-01T06:38:41.705Z,36.46
2018-06-01T06:39:13.010Z,36.29
2018-06-01T06:39:44.284Z,34.87
2018-06-01T06:40:15.480Z,35.13
2018-06-01T06:40:46.742Z,34.19
2018-06-01T06:41:17.941Z,35.46
2018-06-01T06:41:49.125Z,35.90
2018-06-01T06:42:20.361Z,35.65
2018-06-01T06:42:51.607Z,35.25
2018-06-01T06:43:22.814Z,35.53
2018-06-01T06:43:54.029Z,36.81